sensor_id;sensor_type;location;lat;lon;timestamp;temperature;humidity
9973;DHT22;5027;53.560;10.062;2022-12-07T00:01:10;9.00;99.90
9973;DHT22;5027;53.560;10.062;2022-12-07T00:03:38;9.00;99.90
9973;DHT22;5027;53.560;10.062;2022-12-07T00:06:06;9.00;99.90
9973;DHT22;5027;53.560;10.062;2022-12-07T00:08:34;9.10;99.90
9973;DHT22;5027;53.560;10.062;2022-12-07T00:11:06;9.00;99.90
9973;DHT22;5027;53.560;10.062;2022-12-07T00:13:34;9.10;99.90
9973;DHT22;5027;53.560;10.062;2022-12-07T00:16:07;9.00;99.90
9973;DHT22;5027;53.560;10.062;2022-12-07T00:18:34;9.10;99.90
9973;DHT22;5027;53.560;10.062;2022-12-07T00:21:02;9.10;99.90
9973;DHT22;5027;53.560;10.062;2022-12-07T00:23:29;9.10;99.90
9973;DHT22;5027;53.560;10.062;2022-12-07T00:26:02;9.10;99.90
9973;DHT22;5027;53.560;10.062;2022-12-07T00:28:29;9.10;99.90
9973;DHT22;5027;53.560;10.062;2022-12-07T00:31:06;9.10;99.90
9973;DHT22;5027;53.560;10.062;2022-12-07T00:33:34;9.00;99.90
9973;DHT22;5027;53.560;10.062;2022-12-07T00:36:03;9.10;99.90
9973;DHT22;5027;53.560;10.062;2022-12-07T00:38:32;9.00;99.90
9973;DHT22;5027;53.560;10.062;2022-12-07T00:41:02;8.90;99.90
9973;DHT22;5027;53.560;10.062;2022-12-07T00:43:29;8.90;99.90
9973;DHT22;5027;53.560;10.062;2022-12-07T00:45:56;9.00;99.90
9973;DHT22;5027;53.560;10.062;2022-12-07T00:48:24;8.80;99.90
9973;DHT22;5027;53.560;10.062;2022-12-07T00:50:51;8.90;99.90
9973;DHT22;5027;53.560;10.062;2022-12-07T00:53:18;8.90;99.90
9973;DHT22;5027;53.560;10.062;2022-12-07T00:55:45;9.00;99.90
9973;DHT22;5027;53.560;10.062;2022-12-07T00:58:12;9.00;99.90
9973;DHT22;5027;53.560;10.062;2022-12-07T01:00:41;9.00;99.90
9973;DHT22;5027;53.560;10.062;2022-12-07T01:03:10;9.00;99.90
9973;DHT22;5027;53.560;10.062;2022-12-07T01:05:37;9.00;99.90
9973;DHT22;5027;53.560;10.062;2022-12-07T01:08:04;9.00;99.90
9973;DHT22;5027;53.560;10.062;2022-12-07T01:10:31;9.10;99.90
9973;DHT22;5027;53.560;10.062;2022-12-07T01:12:58;9.00;99.90
9973;DHT22;5027;53.560;10.062;2022-12-07T01:15:25;8.90;99.90
9973;DHT22;5027;53.560;10.062;2022-12-07T01:17:53;8.90;99.90
9973;DHT22;5027;53.560;10.062;2022-12-07T01:20:21;8.90;99.90
9973;DHT22;5027;53.560;10.062;2022-12-07T01:22:48;8.80;99.90
9973;DHT22;5027;53.560;10.062;2022-12-07T01:25:14;8.80;99.90
9973;DHT22;5027;53.560;10.062;2022-12-07T01:27:41;8.90;99.90
9973;DHT22;5027;53.560;10.062;2022-12-07T01:30:10;9.00;99.90
9973;DHT22;5027;53.560;10.062;2022-12-07T01:32:37;8.90;99.90
9973;DHT22;5027;53.560;10.062;2022-12-07T01:35:04;8.90;99.90
9973;DHT22;5027;53.560;10.062;2022-12-07T01:37:38;9.00;99.90
9973;DHT22;5027;53.560;10.062;2022-12-07T01:40:07;9.00;99.90
9973;DHT22;5027;53.560;10.062;2022-12-07T01:42:34;9.10;99.90
9973;DHT22;5027;53.560;10.062;2022-12-07T01:45:39;9.10;99.90
9973;DHT22;5027;53.560;10.062;2022-12-07T01:48:08;9.10;99.90
9973;DHT22;5027;53.560;10.062;2022-12-07T01:50:40;9.10;99.90
9973;DHT22;5027;53.560;10.062;2022-12-07T01:53:09;9.10;99.90
9973;DHT22;5027;53.560;10.062;2022-12-07T01:55:40;9.10;99.90
9973;DHT22;5027;53.560;10.062;2022-12-07T01:58:08;9.10;99.90
9973;DHT22;5027;53.560;10.062;2022-12-07T02:00:35;9.20;99.90
9973;DHT22;5027;53.560;10.062;2022-12-07T02:03:07;9.10;99.90
9973;DHT22;5027;53.560;10.062;2022-12-07T02:05:37;9.20;99.90
9973;DHT22;5027;53.560;10.062;2022-12-07T02:08:05;9.10;99.90
9973;DHT22;5027;53.560;10.062;2022-12-07T02:10:32;9.10;99.90
9973;DHT22;5027;53.560;10.062;2022-12-07T02:13:10;9.00;99.90
9973;DHT22;5027;53.560;10.062;2022-12-07T02:21:40;9.00;99.90
9973;DHT22;5027;53.560;10.062;2022-12-07T02:24:45;9.00;99.90
9973;DHT22;5027;53.560;10.062;2022-12-07T02:30:11;9.00;99.90
9973;DHT22;5027;53.560;10.062;2022-12-07T02:32:55;8.90;99.90
9973;DHT22;5027;53.560;10.062;2022-12-07T02:35:26;9.00;99.90
9973;DHT22;5027;53.560;10.062;2022-12-07T02:38:07;9.10;99.90
9973;DHT22;5027;53.560;10.062;2022-12-07T02:43:54;9.30;99.90
9973;DHT22;5027;53.560;10.062;2022-12-07T02:46:28;9.20;99.90
9973;DHT22;5027;53.560;10.062;2022-12-07T02:48:56;9.20;99.90
9973;DHT22;5027;53.560;10.062;2022-12-07T02:51:26;9.10;99.90
9973;DHT22;5027;53.560;10.062;2022-12-07T02:53:55;9.20;99.90
9973;DHT22;5027;53.560;10.062;2022-12-07T02:56:35;9.20;99.90
9973;DHT22;5027;53.560;10.062;2022-12-07T03:02:07;9.20;99.90
9973;DHT22;5027;53.560;10.062;2022-12-07T03:04:50;9.20;99.90
9973;DHT22;5027;53.560;10.062;2022-12-07T03:07:37;9.30;99.90
9973;DHT22;5027;53.560;10.062;2022-12-07T03:13:07;9.20;99.90
9973;DHT22;5027;53.560;10.062;2022-12-07T03:18:11;9.10;99.90
9973;DHT22;5027;53.560;10.062;2022-12-07T03:20:41;9.10;99.90
9973;DHT22;5027;53.560;10.062;2022-12-07T03:23:10;9.30;99.90
9973;DHT22;5027;53.560;10.062;2022-12-07T03:25:41;9.20;99.90
9973;DHT22;5027;53.560;10.062;2022-12-07T03:28:14;9.20;99.90
9973;DHT22;5027;53.560;10.062;2022-12-07T03:30:46;9.20;99.90
9973;DHT22;5027;53.560;10.062;2022-12-07T03:33:26;9.20;99.90
9973;DHT22;5027;53.560;10.062;2022-12-07T03:38:44;9.00;99.90
9973;DHT22;5027;53.560;10.062;2022-12-07T03:43:46;9.00;99.90
9973;DHT22;5027;53.560;10.062;2022-12-07T03:46:37;9.10;99.90
9973;DHT22;5027;53.560;10.062;2022-12-07T03:49:18;9.20;99.90
9973;DHT22;5027;53.560;10.062;2022-12-07T03:52:04;9.50;99.90
9973;DHT22;5027;53.560;10.062;2022-12-07T03:54:41;9.50;99.90
9973;DHT22;5027;53.560;10.062;2022-12-07T03:57:11;9.40;99.90
9973;DHT22;5027;53.560;10.062;2022-12-07T03:59:39;9.20;99.90
9973;DHT22;5027;53.560;10.062;2022-12-07T04:02:07;9.10;99.90
9973;DHT22;5027;53.560;10.062;2022-12-07T04:04:34;9.10;99.90
9973;DHT22;5027;53.560;10.062;2022-12-07T04:07:01;9.10;99.90
9973;DHT22;5027;53.560;10.062;2022-12-07T04:09:27;9.10;99.90
9973;DHT22;5027;53.560;10.062;2022-12-07T04:11:54;9.10;99.90
9973;DHT22;5027;53.560;10.062;2022-12-07T04:14:21;9.10;99.90
9973;DHT22;5027;53.560;10.062;2022-12-07T04:16:49;9.00;99.90
9973;DHT22;5027;53.560;10.062;2022-12-07T04:19:18;9.00;99.90
9973;DHT22;5027;53.560;10.062;2022-12-07T04:21:45;9.00;99.90
9973;DHT22;5027;53.560;10.062;2022-12-07T04:24:14;9.00;99.90
9973;DHT22;5027;53.560;10.062;2022-12-07T04:26:41;9.00;99.90
9973;DHT22;5027;53.560;10.062;2022-12-07T04:29:09;9.00;99.90
9973;DHT22;5027;53.560;10.062;2022-12-07T04:31:36;8.90;99.90
9973;DHT22;5027;53.560;10.062;2022-12-07T04:34:04;8.90;99.90
9973;DHT22;5027;53.560;10.062;2022-12-07T04:36:31;8.90;99.90
9973;DHT22;5027;53.560;10.062;2022-12-07T04:38:58;9.00;99.90
9973;DHT22;5027;53.560;10.062;2022-12-07T04:41:25;9.00;99.90
9973;DHT22;5027;53.560;10.062;2022-12-07T04:44:00;8.90;99.90
9973;DHT22;5027;53.560;10.062;2022-12-07T04:46:30;8.90;99.90
9973;DHT22;5027;53.560;10.062;2022-12-07T04:48:57;8.90;99.90
9973;DHT22;5027;53.560;10.062;2022-12-07T04:51:27;8.90;99.90
9973;DHT22;5027;53.560;10.062;2022-12-07T04:53:54;8.80;99.90
9973;DHT22;5027;53.560;10.062;2022-12-07T04:56:22;8.80;99.90
9973;DHT22;5027;53.560;10.062;2022-12-07T04:58:50;8.80;99.90
9973;DHT22;5027;53.560;10.062;2022-12-07T05:01:18;8.80;99.90
9973;DHT22;5027;53.560;10.062;2022-12-07T05:03:45;8.70;99.90
9973;DHT22;5027;53.560;10.062;2022-12-07T05:06:12;8.70;99.90
9973;DHT22;5027;53.560;10.062;2022-12-07T05:08:40;8.80;99.90
9973;DHT22;5027;53.560;10.062;2022-12-07T05:11:07;8.80;99.90
9973;DHT22;5027;53.560;10.062;2022-12-07T05:13:35;8.80;99.90
9973;DHT22;5027;53.560;10.062;2022-12-07T05:16:02;8.80;99.90
9973;DHT22;5027;53.560;10.062;2022-12-07T05:18:29;8.70;99.90
9973;DHT22;5027;53.560;10.062;2022-12-07T05:20:55;8.70;99.90
9973;DHT22;5027;53.560;10.062;2022-12-07T05:23:22;8.70;99.90
9973;DHT22;5027;53.560;10.062;2022-12-07T05:25:49;8.70;99.90
9973;DHT22;5027;53.560;10.062;2022-12-07T05:28:16;8.60;99.90
9973;DHT22;5027;53.560;10.062;2022-12-07T05:30:42;8.70;99.90
9973;DHT22;5027;53.560;10.062;2022-12-07T05:33:09;8.70;99.90
9973;DHT22;5027;53.560;10.062;2022-12-07T05:35:35;8.70;99.90
9973;DHT22;5027;53.560;10.062;2022-12-07T05:38:04;8.70;99.90
9973;DHT22;5027;53.560;10.062;2022-12-07T05:40:31;8.70;99.90
9973;DHT22;5027;53.560;10.062;2022-12-07T05:42:57;8.70;99.90
9973;DHT22;5027;53.560;10.062;2022-12-07T05:45:30;8.70;99.90
9973;DHT22;5027;53.560;10.062;2022-12-07T05:47:56;8.70;99.90
9973;DHT22;5027;53.560;10.062;2022-12-07T05:50:23;8.70;99.90
9973;DHT22;5027;53.560;10.062;2022-12-07T05:52:59;8.70;99.90
9973;DHT22;5027;53.560;10.062;2022-12-07T05:55:26;8.60;99.90
9973;DHT22;5027;53.560;10.062;2022-12-07T05:57:53;8.60;99.90
9973;DHT22;5027;53.560;10.062;2022-12-07T06:00:38;8.60;99.90
9973;DHT22;5027;53.560;10.062;2022-12-07T06:03:04;8.70;99.90
9973;DHT22;5027;53.560;10.062;2022-12-07T06:05:31;8.70;99.90
9973;DHT22;5027;53.560;10.062;2022-12-07T06:07:58;8.70;99.90
9973;DHT22;5027;53.560;10.062;2022-12-07T06:10:31;8.70;99.90
9973;DHT22;5027;53.560;10.062;2022-12-07T06:12:58;8.60;99.90
9973;DHT22;5027;53.560;10.062;2022-12-07T06:15:24;8.60;99.90
9973;DHT22;5027;53.560;10.062;2022-12-07T06:17:51;8.60;99.90
9973;DHT22;5027;53.560;10.062;2022-12-07T06:20:17;8.60;99.90
9973;DHT22;5027;53.560;10.062;2022-12-07T06:22:44;8.60;99.90
9973;DHT22;5027;53.560;10.062;2022-12-07T06:25:11;8.60;99.90
9973;DHT22;5027;53.560;10.062;2022-12-07T06:27:37;8.50;99.90
9973;DHT22;5027;53.560;10.062;2022-12-07T06:30:04;8.60;99.90
9973;DHT22;5027;53.560;10.062;2022-12-07T06:32:33;8.50;99.90
9973;DHT22;5027;53.560;10.062;2022-12-07T06:35:00;8.60;99.90
9973;DHT22;5027;53.560;10.062;2022-12-07T06:37:27;8.60;99.90
9973;DHT22;5027;53.560;10.062;2022-12-07T06:39:54;8.60;99.90
9973;DHT22;5027;53.560;10.062;2022-12-07T06:42:20;8.50;99.90
9973;DHT22;5027;53.560;10.062;2022-12-07T06:44:47;8.60;99.90
9973;DHT22;5027;53.560;10.062;2022-12-07T06:47:14;8.60;99.90
9973;DHT22;5027;53.560;10.062;2022-12-07T06:50:01;8.50;99.90
9973;DHT22;5027;53.560;10.062;2022-12-07T06:52:30;8.50;99.90
9973;DHT22;5027;53.560;10.062;2022-12-07T06:54:56;8.50;99.90
9973;DHT22;5027;53.560;10.062;2022-12-07T06:57:23;8.50;99.90
9973;DHT22;5027;53.560;10.062;2022-12-07T06:59:50;8.40;99.90
9973;DHT22;5027;53.560;10.062;2022-12-07T07:02:16;8.40;99.90
9973;DHT22;5027;53.560;10.062;2022-12-07T07:04:43;8.40;99.90
9973;DHT22;5027;53.560;10.062;2022-12-07T07:07:10;8.50;99.90
9973;DHT22;5027;53.560;10.062;2022-12-07T07:09:37;8.50;99.90
9973;DHT22;5027;53.560;10.062;2022-12-07T07:12:03;8.50;99.90
9973;DHT22;5027;53.560;10.062;2022-12-07T07:14:30;8.50;99.90
9973;DHT22;5027;53.560;10.062;2022-12-07T07:16:56;8.50;99.90
9973;DHT22;5027;53.560;10.062;2022-12-07T07:19:23;8.40;99.90
9973;DHT22;5027;53.560;10.062;2022-12-07T07:21:50;8.40;99.90
9973;DHT22;5027;53.560;10.062;2022-12-07T07:24:16;8.40;99.90
9973;DHT22;5027;53.560;10.062;2022-12-07T07:26:43;8.50;99.90
9973;DHT22;5027;53.560;10.062;2022-12-07T07:29:10;8.50;99.90
9973;DHT22;5027;53.560;10.062;2022-12-07T07:31:36;8.50;99.90
9973;DHT22;5027;53.560;10.062;2022-12-07T07:34:04;8.50;99.90
9973;DHT22;5027;53.560;10.062;2022-12-07T07:36:30;8.60;99.90
9973;DHT22;5027;53.560;10.062;2022-12-07T07:38:57;8.40;99.90
9973;DHT22;5027;53.560;10.062;2022-12-07T07:41:24;8.40;99.90
9973;DHT22;5027;53.560;10.062;2022-12-07T07:43:51;8.50;99.90
9973;DHT22;5027;53.560;10.062;2022-12-07T07:46:17;8.50;99.90
9973;DHT22;5027;53.560;10.062;2022-12-07T07:48:44;8.40;99.90
9973;DHT22;5027;53.560;10.062;2022-12-07T07:51:11;8.40;99.90
9973;DHT22;5027;53.560;10.062;2022-12-07T07:53:37;8.50;99.90
9973;DHT22;5027;53.560;10.062;2022-12-07T07:56:04;8.60;99.90
9973;DHT22;5027;53.560;10.062;2022-12-07T07:58:30;8.50;99.90
9973;DHT22;5027;53.560;10.062;2022-12-07T08:01:03;8.50;99.90
9973;DHT22;5027;53.560;10.062;2022-12-07T08:03:30;8.50;99.90
9973;DHT22;5027;53.560;10.062;2022-12-07T08:05:56;8.60;99.90
9973;DHT22;5027;53.560;10.062;2022-12-07T08:08:23;8.60;99.90
9973;DHT22;5027;53.560;10.062;2022-12-07T08:10:50;8.50;99.90
9973;DHT22;5027;53.560;10.062;2022-12-07T08:13:16;8.50;99.90
9973;DHT22;5027;53.560;10.062;2022-12-07T08:15:46;8.50;99.90
9973;DHT22;5027;53.560;10.062;2022-12-07T08:18:14;8.50;99.90
9973;DHT22;5027;53.560;10.062;2022-12-07T08:20:41;8.60;99.90
9973;DHT22;5027;53.560;10.062;2022-12-07T08:23:08;8.60;99.90
9973;DHT22;5027;53.560;10.062;2022-12-07T08:25:37;8.60;99.90
9973;DHT22;5027;53.560;10.062;2022-12-07T08:28:04;8.60;99.90
9973;DHT22;5027;53.560;10.062;2022-12-07T08:30:31;8.60;99.90
9973;DHT22;5027;53.560;10.062;2022-12-07T08:32:57;8.50;99.90
9973;DHT22;5027;53.560;10.062;2022-12-07T08:35:24;8.50;99.90
9973;DHT22;5027;53.560;10.062;2022-12-07T08:37:51;8.60;99.90
9973;DHT22;5027;53.560;10.062;2022-12-07T08:40:18;8.80;99.90
9973;DHT22;5027;53.560;10.062;2022-12-07T08:42:49;9.30;99.90
9973;DHT22;5027;53.560;10.062;2022-12-07T08:45:17;9.90;99.90
9973;DHT22;5027;53.560;10.062;2022-12-07T08:48:06;10.40;99.90
9973;DHT22;5027;53.560;10.062;2022-12-07T08:50:36;10.20;99.90
9973;DHT22;5027;53.560;10.062;2022-12-07T08:53:04;9.60;99.90
9973;DHT22;5027;53.560;10.062;2022-12-07T08:55:33;9.10;99.90
9973;DHT22;5027;53.560;10.062;2022-12-07T08:58:00;9.00;99.90
9973;DHT22;5027;53.560;10.062;2022-12-07T09:00:28;8.90;99.90
9973;DHT22;5027;53.560;10.062;2022-12-07T09:02:55;8.80;99.90
9973;DHT22;5027;53.560;10.062;2022-12-07T09:05:21;8.70;99.90
9973;DHT22;5027;53.560;10.062;2022-12-07T09:07:51;8.70;99.90
9973;DHT22;5027;53.560;10.062;2022-12-07T09:10:19;8.70;99.90
9973;DHT22;5027;53.560;10.062;2022-12-07T09:12:45;8.70;99.90
9973;DHT22;5027;53.560;10.062;2022-12-07T09:15:12;8.70;99.90
9973;DHT22;5027;53.560;10.062;2022-12-07T09:17:38;8.80;99.90
9973;DHT22;5027;53.560;10.062;2022-12-07T09:20:06;8.70;99.90
9973;DHT22;5027;53.560;10.062;2022-12-07T09:22:33;8.70;99.90
9973;DHT22;5027;53.560;10.062;2022-12-07T09:25:00;8.70;99.90
9973;DHT22;5027;53.560;10.062;2022-12-07T09:27:27;8.80;99.90
9973;DHT22;5027;53.560;10.062;2022-12-07T09:29:54;8.70;99.90
9973;DHT22;5027;53.560;10.062;2022-12-07T09:32:22;8.80;99.90
9973;DHT22;5027;53.560;10.062;2022-12-07T09:34:49;8.70;99.90
9973;DHT22;5027;53.560;10.062;2022-12-07T09:37:16;8.70;99.90
9973;DHT22;5027;53.560;10.062;2022-12-07T09:39:42;8.70;99.90
9973;DHT22;5027;53.560;10.062;2022-12-07T09:42:37;8.80;99.90
9973;DHT22;5027;53.560;10.062;2022-12-07T09:45:13;8.80;99.90
9973;DHT22;5027;53.560;10.062;2022-12-07T09:47:43;9.10;99.90
9973;DHT22;5027;53.560;10.062;2022-12-07T09:50:22;9.50;99.90
9973;DHT22;5027;53.560;10.062;2022-12-07T09:52:50;9.30;99.90
9973;DHT22;5027;53.560;10.062;2022-12-07T09:55:25;9.00;99.90
9973;DHT22;5027;53.560;10.062;2022-12-07T09:57:53;8.90;99.90
9973;DHT22;5027;53.560;10.062;2022-12-07T10:00:23;8.90;99.90
9973;DHT22;5027;53.560;10.062;2022-12-07T10:02:56;8.80;99.90
9973;DHT22;5027;53.560;10.062;2022-12-07T10:05:40;8.90;99.90
9973;DHT22;5027;53.560;10.062;2022-12-07T10:08:09;8.90;99.90
9973;DHT22;5027;53.560;10.062;2022-12-07T10:10:37;8.90;99.90
9973;DHT22;5027;53.560;10.062;2022-12-07T10:13:10;8.90;99.90
9973;DHT22;5027;53.560;10.062;2022-12-07T10:15:56;8.90;99.90
9973;DHT22;5027;53.560;10.062;2022-12-07T10:18:34;8.80;99.90
9973;DHT22;5027;53.560;10.062;2022-12-07T10:21:11;8.80;99.90
9973;DHT22;5027;53.560;10.062;2022-12-07T10:26:33;8.90;99.90
9973;DHT22;5027;53.560;10.062;2022-12-07T10:29:21;9.00;99.90
9973;DHT22;5027;53.560;10.062;2022-12-07T10:34:42;9.20;99.90
9973;DHT22;5027;53.560;10.062;2022-12-07T10:37:19;9.20;99.90
9973;DHT22;5027;53.560;10.062;2022-12-07T10:39:57;9.20;99.90
9973;DHT22;5027;53.560;10.062;2022-12-07T10:42:26;9.40;99.90
9973;DHT22;5027;53.560;10.062;2022-12-07T10:47:46;9.30;99.90
9973;DHT22;5027;53.560;10.062;2022-12-07T10:56:08;9.10;99.90
9973;DHT22;5027;53.560;10.062;2022-12-07T10:58:51;9.10;99.90
9973;DHT22;5027;53.560;10.062;2022-12-07T11:01:29;9.20;99.90
9973;DHT22;5027;53.560;10.062;2022-12-07T11:04:12;9.30;99.90
9973;DHT22;5027;53.560;10.062;2022-12-07T11:06:54;9.20;99.90
9973;DHT22;5027;53.560;10.062;2022-12-07T11:15:55;9.30;99.90
9973;DHT22;5027;53.560;10.062;2022-12-07T11:21:19;9.20;99.90
9973;DHT22;5027;53.560;10.062;2022-12-07T11:24:10;9.20;99.90
9973;DHT22;5027;53.560;10.062;2022-12-07T11:34:56;9.20;99.90
9973;DHT22;5027;53.560;10.062;2022-12-07T11:37:30;9.20;99.90
9973;DHT22;5027;53.560;10.062;2022-12-07T11:40:29;9.20;99.90
9973;DHT22;5027;53.560;10.062;2022-12-07T11:43:05;9.20;99.90
9973;DHT22;5027;53.560;10.062;2022-12-07T11:45:34;9.20;99.90
9973;DHT22;5027;53.560;10.062;2022-12-07T11:48:10;9.10;99.90
9973;DHT22;5027;53.560;10.062;2022-12-07T11:53:44;9.10;99.90
9973;DHT22;5027;53.560;10.062;2022-12-07T11:56:15;9.10;99.90
9973;DHT22;5027;53.560;10.062;2022-12-07T12:06:41;9.40;99.90
9973;DHT22;5027;53.560;10.062;2022-12-07T12:09:16;9.40;99.90
9973;DHT22;5027;53.560;10.062;2022-12-07T12:20:57;9.40;99.30
9973;DHT22;5027;53.560;10.062;2022-12-07T12:23:39;9.40;99.30
9973;DHT22;5027;53.560;10.062;2022-12-07T12:26:18;9.40;99.30
9973;DHT22;5027;53.560;10.062;2022-12-07T12:29:18;9.50;99.40
9973;DHT22;5027;53.560;10.062;2022-12-07T12:32:04;9.40;99.10
9973;DHT22;5027;53.560;10.062;2022-12-07T12:34:40;9.80;99.90
9973;DHT22;5027;53.560;10.062;2022-12-07T12:42:50;10.10;99.90
9973;DHT22;5027;53.560;10.062;2022-12-07T12:45:27;10.60;99.90
9973;DHT22;5027;53.560;10.062;2022-12-07T12:47:59;10.60;99.90
9973;DHT22;5027;53.560;10.062;2022-12-07T12:50:34;10.90;99.90
9973;DHT22;5027;53.560;10.062;2022-12-07T12:53:23;10.80;99.90
9973;DHT22;5027;53.560;10.062;2022-12-07T12:59:30;11.10;99.90
9973;DHT22;5027;53.560;10.062;2022-12-07T13:02:25;10.80;99.90
9973;DHT22;5027;53.560;10.062;2022-12-07T13:20:58;11.10;99.90
9973;DHT22;5027;53.560;10.062;2022-12-07T13:31:43;10.90;99.90
9973;DHT22;5027;53.560;10.062;2022-12-07T13:34:50;10.80;99.90
9973;DHT22;5027;53.560;10.062;2022-12-07T13:37:35;11.00;99.90
9973;DHT22;5027;53.560;10.062;2022-12-07T13:40:23;10.70;99.90
9973;DHT22;5027;53.560;10.062;2022-12-07T13:43:18;10.50;99.90
9973;DHT22;5027;53.560;10.062;2022-12-07T13:45:58;10.70;99.90
9973;DHT22;5027;53.560;10.062;2022-12-07T13:49:00;10.60;99.90
9973;DHT22;5027;53.560;10.062;2022-12-07T13:51:35;10.80;99.90
9973;DHT22;5027;53.560;10.062;2022-12-07T13:54:11;10.60;99.00
9973;DHT22;5027;53.560;10.062;2022-12-07T13:56:38;10.60;99.40
9973;DHT22;5027;53.560;10.062;2022-12-07T13:59:17;10.90;99.90
9973;DHT22;5027;53.560;10.062;2022-12-07T14:01:46;11.10;99.90
9973;DHT22;5027;53.560;10.062;2022-12-07T14:06:56;11.40;99.90
9973;DHT22;5027;53.560;10.062;2022-12-07T14:09:25;11.20;99.90
9973;DHT22;5027;53.560;10.062;2022-12-07T14:11:54;11.20;99.90
9973;DHT22;5027;53.560;10.062;2022-12-07T14:14:23;11.00;99.90
9973;DHT22;5027;53.560;10.062;2022-12-07T14:19:45;10.90;99.80
9973;DHT22;5027;53.560;10.062;2022-12-07T14:22:32;10.70;99.90
9973;DHT22;5027;53.560;10.062;2022-12-07T14:25:23;10.60;96.70
9973;DHT22;5027;53.560;10.062;2022-12-07T14:28:00;10.40;97.00
9973;DHT22;5027;53.560;10.062;2022-12-07T14:30:32;10.60;98.80
9973;DHT22;5027;53.560;10.062;2022-12-07T14:33:03;10.60;97.30
9973;DHT22;5027;53.560;10.062;2022-12-07T14:35:31;10.70;99.90
9973;DHT22;5027;53.560;10.062;2022-12-07T14:37:58;10.40;95.60
9973;DHT22;5027;53.560;10.062;2022-12-07T14:40:28;10.20;94.90
9973;DHT22;5027;53.560;10.062;2022-12-07T14:43:08;10.00;94.40
9973;DHT22;5027;53.560;10.062;2022-12-07T14:45:36;10.00;94.30
9973;DHT22;5027;53.560;10.062;2022-12-07T14:48:03;10.00;94.10
9973;DHT22;5027;53.560;10.062;2022-12-07T14:50:54;10.00;94.10
9973;DHT22;5027;53.560;10.062;2022-12-07T14:53:50;9.90;94.40
9973;DHT22;5027;53.560;10.062;2022-12-07T14:56:23;9.80;94.70
9973;DHT22;5027;53.560;10.062;2022-12-07T14:58:52;9.80;94.70
9973;DHT22;5027;53.560;10.062;2022-12-07T15:01:21;9.70;94.60
9973;DHT22;5027;53.560;10.062;2022-12-07T15:03:48;9.60;94.70
9973;DHT22;5027;53.560;10.062;2022-12-07T15:06:17;9.60;94.40
9973;DHT22;5027;53.560;10.062;2022-12-07T15:08:46;9.60;94.70
9973;DHT22;5027;53.560;10.062;2022-12-07T15:11:19;9.60;94.70
9973;DHT22;5027;53.560;10.062;2022-12-07T15:13:53;9.60;95.20
9973;DHT22;5027;53.560;10.062;2022-12-07T15:16:40;9.50;94.60
9973;DHT22;5027;53.560;10.062;2022-12-07T15:19:32;9.50;94.70
9973;DHT22;5027;53.560;10.062;2022-12-07T15:21:59;9.40;94.70
9973;DHT22;5027;53.560;10.062;2022-12-07T15:24:26;9.40;94.60
9973;DHT22;5027;53.560;10.062;2022-12-07T15:26:53;9.40;95.10
9973;DHT22;5027;53.560;10.062;2022-12-07T15:29:20;9.40;95.00
9973;DHT22;5027;53.560;10.062;2022-12-07T15:31:52;9.40;94.40
9973;DHT22;5027;53.560;10.062;2022-12-07T15:34:25;9.40;94.60
9973;DHT22;5027;53.560;10.062;2022-12-07T15:36:52;9.40;94.60
9973;DHT22;5027;53.560;10.062;2022-12-07T15:39:18;9.50;95.30
9973;DHT22;5027;53.560;10.062;2022-12-07T15:41:45;9.70;94.50
9973;DHT22;5027;53.560;10.062;2022-12-07T15:44:12;9.70;93.80
9973;DHT22;5027;53.560;10.062;2022-12-07T15:46:57;9.60;93.70
9973;DHT22;5027;53.560;10.062;2022-12-07T15:49:25;9.50;93.50
9973;DHT22;5027;53.560;10.062;2022-12-07T15:51:51;9.50;93.40
9973;DHT22;5027;53.560;10.062;2022-12-07T15:54:24;9.40;92.90
9973;DHT22;5027;53.560;10.062;2022-12-07T15:56:51;9.30;93.00
9973;DHT22;5027;53.560;10.062;2022-12-07T15:59:17;9.40;92.80
9973;DHT22;5027;53.560;10.062;2022-12-07T16:01:44;9.40;92.80
9973;DHT22;5027;53.560;10.062;2022-12-07T16:04:11;9.30;92.80
9973;DHT22;5027;53.560;10.062;2022-12-07T16:06:38;9.30;93.10
9973;DHT22;5027;53.560;10.062;2022-12-07T16:09:05;9.30;92.70
9973;DHT22;5027;53.560;10.062;2022-12-07T16:11:32;9.30;93.00
9973;DHT22;5027;53.560;10.062;2022-12-07T16:13:59;9.20;92.70
9973;DHT22;5027;53.560;10.062;2022-12-07T16:16:26;9.20;93.40
9973;DHT22;5027;53.560;10.062;2022-12-07T16:18:53;9.20;93.10
9973;DHT22;5027;53.560;10.062;2022-12-07T16:21:21;9.20;93.30
9973;DHT22;5027;53.560;10.062;2022-12-07T16:23:51;9.20;93.90
9973;DHT22;5027;53.560;10.062;2022-12-07T16:26:20;9.20;93.70
9973;DHT22;5027;53.560;10.062;2022-12-07T16:28:51;9.10;93.50
9973;DHT22;5027;53.560;10.062;2022-12-07T16:31:21;9.20;93.50
9973;DHT22;5027;53.560;10.062;2022-12-07T16:33:48;9.10;93.80
9973;DHT22;5027;53.560;10.062;2022-12-07T16:36:16;9.10;93.60
9973;DHT22;5027;53.560;10.062;2022-12-07T16:39:03;9.00;93.50
9973;DHT22;5027;53.560;10.062;2022-12-07T16:41:30;9.10;93.50
9973;DHT22;5027;53.560;10.062;2022-12-07T16:46:49;9.10;93.40
9973;DHT22;5027;53.560;10.062;2022-12-07T16:49:16;9.10;93.30
9973;DHT22;5027;53.560;10.062;2022-12-07T16:51:43;9.10;93.80
9973;DHT22;5027;53.560;10.062;2022-12-07T16:54:10;9.00;94.00
9973;DHT22;5027;53.560;10.062;2022-12-07T16:56:38;9.00;94.10
9973;DHT22;5027;53.560;10.062;2022-12-07T16:59:05;9.10;94.40
9973;DHT22;5027;53.560;10.062;2022-12-07T17:01:31;9.00;94.30
9973;DHT22;5027;53.560;10.062;2022-12-07T17:03:58;9.00;94.50
9973;DHT22;5027;53.560;10.062;2022-12-07T17:06:27;9.00;94.40
9973;DHT22;5027;53.560;10.062;2022-12-07T17:08:54;9.00;94.40
9973;DHT22;5027;53.560;10.062;2022-12-07T17:11:25;9.00;94.70
9973;DHT22;5027;53.560;10.062;2022-12-07T17:13:52;9.00;94.40
9973;DHT22;5027;53.560;10.062;2022-12-07T17:16:37;9.00;94.70
9973;DHT22;5027;53.560;10.062;2022-12-07T17:19:09;9.00;94.60
9973;DHT22;5027;53.560;10.062;2022-12-07T17:21:37;9.00;94.40
9973;DHT22;5027;53.560;10.062;2022-12-07T17:24:07;9.00;94.60
9973;DHT22;5027;53.560;10.062;2022-12-07T17:26:34;9.00;94.60
9973;DHT22;5027;53.560;10.062;2022-12-07T17:29:04;9.00;94.60
9973;DHT22;5027;53.560;10.062;2022-12-07T17:31:31;9.00;94.40
9973;DHT22;5027;53.560;10.062;2022-12-07T17:33:59;9.00;94.30
9973;DHT22;5027;53.560;10.062;2022-12-07T17:36:27;9.00;94.40
9973;DHT22;5027;53.560;10.062;2022-12-07T17:38:55;9.00;94.30
9973;DHT22;5027;53.560;10.062;2022-12-07T17:41:26;9.00;94.00
9973;DHT22;5027;53.560;10.062;2022-12-07T17:44:13;9.00;94.30
9973;DHT22;5027;53.560;10.062;2022-12-07T17:46:42;9.00;93.90
9973;DHT22;5027;53.560;10.062;2022-12-07T17:49:08;9.00;93.80
9973;DHT22;5027;53.560;10.062;2022-12-07T17:51:35;9.00;94.20
9973;DHT22;5027;53.560;10.062;2022-12-07T17:54:20;9.00;94.40
9973;DHT22;5027;53.560;10.062;2022-12-07T17:56:47;9.00;94.30
9973;DHT22;5027;53.560;10.062;2022-12-07T17:59:15;9.00;94.30
9973;DHT22;5027;53.560;10.062;2022-12-07T18:01:43;9.00;94.10
9973;DHT22;5027;53.560;10.062;2022-12-07T18:04:10;9.00;94.00
9973;DHT22;5027;53.560;10.062;2022-12-07T18:06:39;8.90;94.00
9973;DHT22;5027;53.560;10.062;2022-12-07T18:09:07;8.90;94.10
9973;DHT22;5027;53.560;10.062;2022-12-07T18:11:36;8.90;94.20
9973;DHT22;5027;53.560;10.062;2022-12-07T18:14:04;8.80;94.40
9973;DHT22;5027;53.560;10.062;2022-12-07T18:16:32;8.80;94.30
9973;DHT22;5027;53.560;10.062;2022-12-07T18:19:05;8.80;94.30
9973;DHT22;5027;53.560;10.062;2022-12-07T18:21:32;8.80;94.10
9973;DHT22;5027;53.560;10.062;2022-12-07T18:24:01;8.80;94.30